sensor_id;sensor_type;location;lat;lon;timestamp;pressure;altitude;pressure_sealevel;temperature;humidity
36242;BME280;22283;42.748;12.732;2023-02-22T00:03:50;98434.31;;;9.14;94.75
36242;BME280;22283;42.748;12.732;2023-02-22T00:08:51;98434.97;;;9.17;93.98
36242;BME280;22283;42.748;12.732;2023-02-22T00:13:53;98426.88;;;9.20;93.28
36242;BME280;22283;42.748;12.732;2023-02-22T00:18:56;98420.34;;;9.26;92.91
36242;BME280;22283;42.748;12.732;2023-02-22T00:23:57;98425.19;;;9.19;94.07
36242;BME280;22283;42.748;12.732;2023-02-22T00:28:57;98414.41;;;9.22;93.20
36242;BME280;22283;42.748;12.732;2023-02-22T00:33:58;98414.03;;;9.28;92.70
36242;BME280;22283;42.748;12.732;2023-02-22T00:38:59;98410.84;;;9.23;92.76
36242;BME280;22283;42.748;12.732;2023-02-22T00:44:00;98399.81;;;9.17;92.94
36242;BME280;22283;42.748;12.732;2023-02-22T00:49:01;98397.66;;;9.09;94.11
36242;BME280;22283;42.748;12.732;2023-02-22T00:54:01;98394.66;;;9.01;94.53
36242;BME280;22283;42.748;12.732;2023-02-22T00:59:05;98393.31;;;8.94;94.80
36242;BME280;22283;42.748;12.732;2023-02-22T01:04:05;98379.59;;;8.89;94.16
36242;BME280;22283;42.748;12.732;2023-02-22T01:09:06;98366.28;;;8.90;93.31
36242;BME280;22283;42.748;12.732;2023-02-22T01:14:07;98366.09;;;8.93;92.33
36242;BME280;22283;42.748;12.732;2023-02-22T01:19:09;98369.38;;;9.11;90.57
36242;BME280;22283;42.748;12.732;2023-02-22T01:24:12;98361.34;;;9.13;89.66
36242;BME280;22283;42.748;12.732;2023-02-22T01:29:16;98355.72;;;9.04;89.78
36242;BME280;22283;42.748;12.732;2023-02-22T01:34:18;98346.41;;;8.99;89.72
36242;BME280;22283;42.748;12.732;2023-02-22T01:39:18;98335.28;;;8.94;90.46
36242;BME280;22283;42.748;12.732;2023-02-22T01:44:27;98333.03;;;8.88;91.35
36242;BME280;22283;42.748;12.732;2023-02-22T01:49:33;98331.63;;;8.82;92.81
36242;BME280;22283;42.748;12.732;2023-02-22T01:54:40;98320.25;;;8.67;94.03
36242;BME280;22283;42.748;12.732;2023-02-22T01:59:43;98330.50;;;8.72;94.19
36242;BME280;22283;42.748;12.732;2023-02-22T02:04:46;98312.81;;;8.59;94.29
36242;BME280;22283;42.748;12.732;2023-02-22T02:10:03;98315.78;;;8.82;91.37
36242;BME280;22283;42.748;12.732;2023-02-22T02:15:23;98318.00;;;9.02;90.20
36242;BME280;22283;42.748;12.732;2023-02-22T02:20:31;98309.53;;;8.97;90.11
36242;BME280;22283;42.748;12.732;2023-02-22T02:26:02;98305.28;;;8.95;89.66
36242;BME280;22283;42.748;12.732;2023-02-22T02:36:32;98308.31;;;9.03;90.21
36242;BME280;22283;42.748;12.732;2023-02-22T02:41:42;98313.91;;;8.84;93.91
36242;BME280;22283;42.748;12.732;2023-02-22T02:51:53;98305.75;;;8.60;95.72
36242;BME280;22283;42.748;12.732;2023-02-22T02:56:56;98303.41;;;8.55;95.71
36242;BME280;22283;42.748;12.732;2023-02-22T03:07:33;98300.38;;;8.61;94.08
36242;BME280;22283;42.748;12.732;2023-02-22T03:12:41;98299.81;;;8.56;95.98
36242;BME280;22283;42.748;12.732;2023-02-22T03:18:03;98292.97;;;8.40;97.33
36242;BME280;22283;42.748;12.732;2023-02-22T03:28:16;98288.97;;;8.47;96.57
36242;BME280;22283;42.748;12.732;2023-02-22T03:33:25;98288.44;;;8.56;94.67
36242;BME280;22283;42.748;12.732;2023-02-22T03:38:36;98298.75;;;8.59;93.72
36242;BME280;22283;42.748;12.732;2023-02-22T03:43:43;98289.63;;;8.65;92.89
36242;BME280;22283;42.748;12.732;2023-02-22T03:48:52;98298.97;;;8.56;93.90
36242;BME280;22283;42.748;12.732;2023-02-22T03:53:56;98292.19;;;8.52;94.70
36242;BME280;22283;42.748;12.732;2023-02-22T03:59:05;98290.22;;;8.41;96.72
36242;BME280;22283;42.748;12.732;2023-02-22T04:04:06;98289.16;;;8.29;97.75
36242;BME280;22283;42.748;12.732;2023-02-22T04:09:09;98286.25;;;8.20;98.99
36242;BME280;22283;42.748;12.732;2023-02-22T04:14:10;98288.78;;;8.21;98.59
36242;BME280;22283;42.748;12.732;2023-02-22T04:19:11;98287.09;;;8.20;98.05
36242;BME280;22283;42.748;12.732;2023-02-22T04:24:13;98285.19;;;8.22;98.14
36242;BME280;22283;42.748;12.732;2023-02-22T04:29:15;98296.38;;;8.26;97.49
36242;BME280;22283;42.748;12.732;2023-02-22T04:34:18;98291.78;;;8.29;96.79
36242;BME280;22283;42.748;12.732;2023-02-22T04:39:19;98290.47;;;8.22;97.67
36242;BME280;22283;42.748;12.732;2023-02-22T04:44:19;98298.28;;;8.24;97.72
36242;BME280;22283;42.748;12.732;2023-02-22T04:49:20;98295.84;;;8.21;97.23
36242;BME280;22283;42.748;12.732;2023-02-22T04:54:22;98300.16;;;8.22;96.97
36242;BME280;22283;42.748;12.732;2023-02-22T04:59:22;98306.09;;;8.25;96.79
36242;BME280;22283;42.748;12.732;2023-02-22T05:04:29;98312.50;;;8.35;96.09
36242;BME280;22283;42.748;12.732;2023-02-22T05:09:29;98302.31;;;8.29;96.44
36242;BME280;22283;42.748;12.732;2023-02-22T05:14:30;98306.28;;;8.36;95.79
36242;BME280;22283;42.748;12.732;2023-02-22T05:19:31;98318.56;;;8.37;96.90
36242;BME280;22283;42.748;12.732;2023-02-22T05:24:32;98310.34;;;8.28;97.64
36242;BME280;22283;42.748;12.732;2023-02-22T05:29:32;98312.03;;;8.29;97.00
36242;BME280;22283;42.748;12.732;2023-02-22T05:34:33;98308.72;;;8.25;97.51
36242;BME280;22283;42.748;12.732;2023-02-22T05:39:34;98310.81;;;8.20;98.30
36242;BME280;22283;42.748;12.732;2023-02-22T05:44:34;98309.69;;;8.24;98.86
36242;BME280;22283;42.748;12.732;2023-02-22T05:49:35;98326.63;;;8.20;99.43
36242;BME280;22283;42.748;12.732;2023-02-22T05:54:35;98325.00;;;8.18;100.00
36242;BME280;22283;42.748;12.732;2023-02-22T05:59:36;98313.63;;;8.17;100.00
36242;BME280;22283;42.748;12.732;2023-02-22T06:04:36;98319.16;;;8.12;100.00
36242;BME280;22283;42.748;12.732;2023-02-22T06:09:37;98323.13;;;8.20;100.00
36242;BME280;22283;42.748;12.732;2023-02-22T06:14:38;98322.94;;;8.23;100.00
36242;BME280;22283;42.748;12.732;2023-02-22T06:19:40;98325.38;;;8.26;100.00
36242;BME280;22283;42.748;12.732;2023-02-22T06:24:40;98331.59;;;8.25;100.00
36242;BME280;22283;42.748;12.732;2023-02-22T06:29:44;98337.72;;;8.25;100.00
36242;BME280;22283;42.748;12.732;2023-02-22T06:34:46;98335.66;;;8.30;100.00
36242;BME280;22283;42.748;12.732;2023-02-22T06:39:48;98339.72;;;8.36;100.00
36242;BME280;22283;42.748;12.732;2023-02-22T06:44:49;98345.41;;;8.44;100.00
36242;BME280;22283;42.748;12.732;2023-02-22T06:49:53;98344.72;;;8.55;100.00
36242;BME280;22283;42.748;12.732;2023-02-22T06:54:54;98340.09;;;8.58;99.50
36242;BME280;22283;42.748;12.732;2023-02-22T06:59:54;98348.03;;;8.73;98.31
36242;BME280;22283;42.748;12.732;2023-02-22T07:04:55;98342.28;;;8.80;97.37
36242;BME280;22283;42.748;12.732;2023-02-22T07:09:56;98350.38;;;8.92;98.67
36242;BME280;22283;42.748;12.732;2023-02-22T07:14:56;98360.63;;;8.96;100.00
36242;BME280;22283;42.748;12.732;2023-02-22T07:19:57;98358.47;;;9.03;100.00
36242;BME280;22283;42.748;12.732;2023-02-22T07:24:58;98364.28;;;9.08;100.00
36242;BME280;22283;42.748;12.732;2023-02-22T07:29:59;98361.34;;;9.13;99.61
36242;BME280;22283;42.748;12.732;2023-02-22T07:35:00;98353.06;;;9.19;99.47
36242;BME280;22283;42.748;12.732;2023-02-22T07:40:02;98363.22;;;9.25;99.46
36242;BME280;22283;42.748;12.732;2023-02-22T07:45:03;98356.69;;;9.30;96.89
36242;BME280;22283;42.748;12.732;2023-02-22T07:50:04;98366.13;;;9.34;96.67
36242;BME280;22283;42.748;12.732;2023-02-22T07:55:05;98369.13;;;9.43;95.62
36242;BME280;22283;42.748;12.732;2023-02-22T08:00:09;98356.66;;;9.45;96.05
36242;BME280;22283;42.748;12.732;2023-02-22T08:05:13;98367.91;;;9.61;94.79
36242;BME280;22283;42.748;12.732;2023-02-22T08:10:15;98362.66;;;9.74;93.59
36242;BME280;22283;42.748;12.732;2023-02-22T08:15:20;98362.25;;;9.80;92.61
36242;BME280;22283;42.748;12.732;2023-02-22T08:20:21;98358.34;;;9.85;91.93
36242;BME280;22283;42.748;12.732;2023-02-22T08:25:25;98369.69;;;9.88;92.08
36242;BME280;22283;42.748;12.732;2023-02-22T08:30:28;98360.72;;;10.03;90.39
36242;BME280;22283;42.748;12.732;2023-02-22T08:35:30;98355.78;;;10.11;89.66
36242;BME280;22283;42.748;12.732;2023-02-22T08:40:34;98355.34;;;10.17;87.03
36242;BME280;22283;42.748;12.732;2023-02-22T08:45:34;98366.28;;;10.25;86.75
36242;BME280;22283;42.748;12.732;2023-02-22T08:50:35;98368.31;;;10.34;85.35
36242;BME280;22283;42.748;12.732;2023-02-22T08:55:38;98364.63;;;10.50;84.28
36242;BME280;22283;42.748;12.732;2023-02-22T09:00:39;98369.59;;;10.54;84.12
36242;BME280;22283;42.748;12.732;2023-02-22T09:05:41;98368.31;;;10.60;82.65
36242;BME280;22283;42.748;12.732;2023-02-22T09:10:42;98370.22;;;10.71;80.80
36242;BME280;22283;42.748;12.732;2023-02-22T09:15:44;98372.53;;;10.75;80.91
36242;BME280;22283;42.748;12.732;2023-02-22T09:20:45;98371.06;;;10.71;82.39
36242;BME280;22283;42.748;12.732;2023-02-22T09:25:47;98369.03;;;10.88;81.83
36242;BME280;22283;42.748;12.732;2023-02-22T09:30:47;98374.19;;;11.02;81.25
36242;BME280;22283;42.748;12.732;2023-02-22T09:35:48;98366.22;;;11.15;80.10
36242;BME280;22283;42.748;12.732;2023-02-22T09:40:53;98364.34;;;11.41;77.18
36242;BME280;22283;42.748;12.732;2023-02-22T09:46:24;98354.41;;;11.79;75.54
36242;BME280;22283;42.748;12.732;2023-02-22T09:51:32;98347.31;;;12.15;73.68
36242;BME280;22283;42.748;12.732;2023-02-22T09:56:35;98331.50;;;12.71;70.74
36242;BME280;22283;42.748;12.732;2023-02-22T10:06:41;98333.97;;;13.29;66.68
36242;BME280;22283;42.748;12.732;2023-02-22T10:17:51;98314.94;;;14.09;63.12
36242;BME280;22283;42.748;12.732;2023-02-22T10:23:23;98292.50;;;14.02;61.38
36242;BME280;22283;42.748;12.732;2023-02-22T10:28:32;98301.50;;;14.11;61.32
36242;BME280;22283;42.748;12.732;2023-02-22T10:33:42;98299.56;;;13.92;61.13
36242;BME280;22283;42.748;12.732;2023-02-22T10:38:57;98291.69;;;13.37;63.30
36242;BME280;22283;42.748;12.732;2023-02-22T10:44:00;98288.53;;;13.43;64.40
36242;BME280;22283;42.748;12.732;2023-02-22T10:49:04;98285.84;;;13.55;62.89
36242;BME280;22283;42.748;12.732;2023-02-22T10:59:36;98272.25;;;13.90;58.47
36242;BME280;22283;42.748;12.732;2023-02-22T11:04:52;98252.66;;;13.91;57.42
36242;BME280;22283;42.748;12.732;2023-02-22T11:10:02;98250.69;;;13.93;58.02
36242;BME280;22283;42.748;12.732;2023-02-22T11:20:24;98235.66;;;14.03;58.03
36242;BME280;22283;42.748;12.732;2023-02-22T11:25:29;98224.47;;;14.09;58.90
36242;BME280;22283;42.748;12.732;2023-02-22T11:30:32;98230.06;;;13.85;60.38
36242;BME280;22283;42.748;12.732;2023-02-22T11:35:39;98214.59;;;13.90;60.19
36242;BME280;22283;42.748;12.732;2023-02-22T11:51:16;98199.16;;;13.84;59.42
36242;BME280;22283;42.748;12.732;2023-02-22T11:56:49;98182.34;;;13.84;59.09
36242;BME280;22283;42.748;12.732;2023-02-22T12:13:02;98176.25;;;14.64;57.14
36242;BME280;22283;42.748;12.732;2023-02-22T12:23:21;98169.25;;;14.72;55.93
36242;BME280;22283;42.748;12.732;2023-02-22T12:33:54;98165.38;;;14.96;54.46
36242;BME280;22283;42.748;12.732;2023-02-22T12:39:04;98160.16;;;14.85;53.60
36242;BME280;22283;42.748;12.732;2023-02-22T12:44:17;98158.91;;;14.79;53.46
36242;BME280;22283;42.748;12.732;2023-02-22T12:49:27;98166.06;;;14.79;52.90
36242;BME280;22283;42.748;12.732;2023-02-22T12:54:52;98158.06;;;14.79;53.00
36242;BME280;22283;42.748;12.732;2023-02-22T13:00:04;98163.97;;;14.92;53.19
36242;BME280;22283;42.748;12.732;2023-02-22T13:05:16;98159.19;;;14.76;54.59
36242;BME280;22283;42.748;12.732;2023-02-22T13:21:56;98156.53;;;14.36;55.10
36242;BME280;22283;42.748;12.732;2023-02-22T13:27:03;98164.59;;;14.24;55.95
36242;BME280;22283;42.748;12.732;2023-02-22T13:43:25;98157.28;;;14.07;56.67
36242;BME280;22283;42.748;12.732;2023-02-22T13:54:02;98152.38;;;14.12;57.13
36242;BME280;22283;42.748;12.732;2023-02-22T13:59:05;98148.31;;;14.08;56.76
36242;BME280;22283;42.748;12.732;2023-02-22T14:20:18;98146.50;;;14.49;54.49
36242;BME280;22283;42.748;12.732;2023-02-22T14:25:39;98142.25;;;14.37;54.38
36242;BME280;22283;42.748;12.732;2023-02-22T14:30:41;98146.28;;;14.21;54.75
36242;BME280;22283;42.748;12.732;2023-02-22T14:35:42;98140.59;;;14.05;54.59
36242;BME280;22283;42.748;12.732;2023-02-22T14:40:46;98134.03;;;14.09;54.56
36242;BME280;22283;42.748;12.732;2023-02-22T14:45:52;98136.66;;;13.99;54.71
36242;BME280;22283;42.748;12.732;2023-02-22T14:50:59;98129.25;;;14.03;55.29
36242;BME280;22283;42.748;12.732;2023-02-22T14:56:21;98134.03;;;14.09;55.67
36242;BME280;22283;42.748;12.732;2023-02-22T15:06:31;98135.41;;;13.73;56.37
36242;BME280;22283;42.748;12.732;2023-02-22T15:11:34;98136.34;;;13.62;57.10
36242;BME280;22283;42.748;12.732;2023-02-22T15:16:36;98128.63;;;13.59;58.07
36242;BME280;22283;42.748;12.732;2023-02-22T15:21:44;98131.53;;;13.56;59.05
36242;BME280;22283;42.748;12.732;2023-02-22T15:26:45;98131.47;;;13.46;59.74
36242;BME280;22283;42.748;12.732;2023-02-22T15:31:46;98125.59;;;13.43;60.45
36242;BME280;22283;42.748;12.732;2023-02-22T15:36:48;98121.50;;;13.39;61.01
36242;BME280;22283;42.748;12.732;2023-02-22T15:42:07;98134.59;;;13.31;61.04
36242;BME280;22283;42.748;12.732;2023-02-22T15:47:18;98133.88;;;13.17;61.69
36242;BME280;22283;42.748;12.732;2023-02-22T15:52:21;98130.34;;;13.07;62.46
36242;BME280;22283;42.748;12.732;2023-02-22T15:57:23;98123.84;;;13.00;62.60
36242;BME280;22283;42.748;12.732;2023-02-22T16:02:33;98114.94;;;12.90;63.87
36242;BME280;22283;42.748;12.732;2023-02-22T16:07:38;98117.53;;;12.80;64.40
36242;BME280;22283;42.748;12.732;2023-02-22T16:12:44;98112.09;;;12.70;64.91
36242;BME280;22283;42.748;12.732;2023-02-22T16:17:45;98116.25;;;12.63;65.31
36242;BME280;22283;42.748;12.732;2023-02-22T16:22:48;98123.28;;;12.53;66.19
36242;BME280;22283;42.748;12.732;2023-02-22T16:28:00;98111.91;;;12.51;66.11
36242;BME280;22283;42.748;12.732;2023-02-22T16:33:08;98118.34;;;12.37;67.10
36242;BME280;22283;42.748;12.732;2023-02-22T16:38:12;98119.22;;;12.26;68.04
36242;BME280;22283;42.748;12.732;2023-02-22T16:43:18;98112.13;;;12.16;68.87
36242;BME280;22283;42.748;12.732;2023-02-22T16:48:28;98126.72;;;12.10;69.54
36242;BME280;22283;42.748;12.732;2023-02-22T16:53:30;98131.31;;;11.97;70.36
36242;BME280;22283;42.748;12.732;2023-02-22T16:58:35;98119.03;;;11.85;71.85
36242;BME280;22283;42.748;12.732;2023-02-22T17:03:37;98127.31;;;11.80;73.06
36242;BME280;22283;42.748;12.732;2023-02-22T17:08:39;98125.00;;;11.75;73.76
36242;BME280;22283;42.748;12.732;2023-02-22T17:13:40;98132.94;;;11.64;75.49
36242;BME280;22283;42.748;12.732;2023-02-22T17:18:41;98138.09;;;11.54;76.36
36242;BME280;22283;42.748;12.732;2023-02-22T17:23:42;98137.50;;;11.51;76.82
36242;BME280;22283;42.748;12.732;2023-02-22T17:28:45;98133.53;;;11.45;76.61
36242;BME280;22283;42.748;12.732;2023-02-22T17:33:45;98135.31;;;11.45;77.20
36242;BME280;22283;42.748;12.732;2023-02-22T17:38:46;98138.44;;;11.39;78.12
36242;BME280;22283;42.748;12.732;2023-02-22T17:43:47;98136.13;;;11.34;79.29
36242;BME280;22283;42.748;12.732;2023-02-22T17:48:47;98139.38;;;11.26;79.98
36242;BME280;22283;42.748;12.732;2023-02-22T17:53:48;98140.78;;;11.19;80.51
36242;BME280;22283;42.748;12.732;2023-02-22T17:58:52;98137.66;;;11.14;80.98
36242;BME280;22283;42.748;12.732;2023-02-22T18:03:55;98135.00;;;11.14;81.84
36242;BME280;22283;42.748;12.732;2023-02-22T18:08:58;98134.25;;;11.12;83.36
36242;BME280;22283;42.748;12.732;2023-02-22T18:13:59;98135.44;;;11.08;83.50
36242;BME280;22283;42.748;12.732;2023-02-22T18:19:00;98125.22;;;11.03;84.07
36242;BME280;22283;42.748;12.732;2023-02-22T18:24:02;98116.41;;;11.03;84.14
36242;BME280;22283;42.748;12.732;2023-02-22T18:29:04;98124.50;;;11.01;83.85
36242;BME280;22283;42.748;12.732;2023-02-22T18:34:05;98114.91;;;10.88;85.01
36242;BME280;22283;42.748;12.732;2023-02-22T18:39:05;98117.50;;;10.76;85.74
36242;BME280;22283;42.748;12.732;2023-02-22T18:44:11;98116.25;;;10.58;86.66
36242;BME280;22283;42.748;12.732;2023-02-22T18:49:12;98109.50;;;10.54;86.99
36242;BME280;22283;42.748;12.732;2023-02-22T18:54:13;98119.44;;;10.50;86.53
36242;BME280;22283;42.748;12.732;2023-02-22T18:59:14;98110.38;;;10.42;86.57
36242;BME280;22283;42.748;12.732;2023-02-22T19:04:14;98114.44;;;10.34;86.82
36242;BME280;22283;42.748;12.732;2023-02-22T19:09:17;98100.91;;;10.26;87.28
36242;BME280;22283;42.748;12.732;2023-02-22T19:14:18;98106.03;;;10.04;89.00
36242;BME280;22283;42.748;12.732;2023-02-22T19:19:19;98102.47;;;9.79;91.00
36242;BME280;22283;42.748;12.732;2023-02-22T19:24:20;98094.25;;;9.58;92.02
36242;BME280;22283;42.748;12.732;2023-02-22T19:29:21;98104.81;;;9.46;92.97
36242;BME280;22283;42.748;12.732;2023-02-22T19:34:23;98101.22;;;9.34;93.67
36242;BME280;22283;42.748;12.732;2023-02-22T19:39:27;98096.56;;;9.38;93.14
36242;BME280;22283;42.748;12.732;2023-02-22T19:44:28;98097.59;;;9.09;94.26
36242;BME280;22283;42.748;12.732;2023-02-22T19:49:29;98090.06;;;8.91;93.81
36242;BME280;22283;42.748;12.732;2023-02-22T19:54:30;98091.22;;;8.74;94.65
36242;BME280;22283;42.748;12.732;2023-02-22T19:59:31;98088.53;;;8.61;95.69
36242;BME280;22283;42.748;12.732;2023-02-22T20:04:31;98091.81;;;8.65;95.52
36242;BME280;22283;42.748;12.732;2023-02-22T20:09:33;98098.47;;;8.43;96.00
36242;BME280;22283;42.748;12.732;2023-02-22T20:14:36;98092.19;;;8.31;97.28
36242;BME280;22283;42.748;12.732;2023-02-22T20:19:38;98092.75;;;8.36;96.74
36242;BME280;22283;42.748;12.732;2023-02-22T20:24:40;98089.53;;;8.31;95.44
36242;BME280;22283;42.748;12.732;2023-02-22T20:29:41;98081.34;;;8.09;97.10
36242;BME280;22283;42.748;12.732;2023-02-22T20:34:46;98079.50;;;7.97;98.23
36242;BME280;22283;42.748;12.732;2023-02-22T20:39:47;98072.31;;;7.99;98.17
36242;BME280;22283;42.748;12.732;2023-02-22T20:44:49;98079.00;;;8.04;96.76
36242;BME280;22283;42.748;12.732;2023-02-22T20:49:50;98076.50;;;7.88;97.10
36242;BME280;22283;42.748;12.732;2023-02-22T20:54:52;98081.03;;;7.72;97.83
36242;BME280;22283;42.748;12.732;2023-02-22T20:59:53;98084.41;;;7.74;97.24
36242;BME280;22283;42.748;12.732;2023-02-22T21:04:53;98087.69;;;7.63;97.92
36242;BME280;22283;42.748;12.732;2023-02-22T21:09:55;98093.81;;;7.50;98.33
36242;BME280;22283;42.748;12.732;2023-02-22T21:14:56;98096.63;;;7.18;99.83
36242;BME280;22283;42.748;12.732;2023-02-22T21:19:57;98108.22;;;7.00;100.00
36242;BME280;22283;42.748;12.732;2023-02-22T21:24:58;98097.41;;;6.90;100.00
36242;BME280;22283;42.748;12.732;2023-02-22T21:29:59;98087.84;;;6.89;100.00
36242;BME280;22283;42.748;12.732;2023-02-22T21:34:59;98094.50;;;6.95;100.00
36242;BME280;22283;42.748;12.732;2023-02-22T21:40:00;98086.44;;;6.98;100.00
36242;BME280;22283;42.748;12.732;2023-02-22T21:45:00;98095.47;;;7.08;100.00
36242;BME280;22283;42.748;12.732;2023-02-22T21:50:01;98087.03;;;7.17;100.00
36242;BME280;22283;42.748;12.732;2023-02-22T21:55:02;98097.19;;;7.09;100.00
36242;BME280;22283;42.748;12.732;2023-02-22T22:00:04;98101.50;;;7.10;99.92
36242;BME280;22283;42.748;12.732;2023-02-22T22:05:17;98105.75;;;6.82;100.00
36242;BME280;22283;42.748;12.732;2023-02-22T22:10:31;98111.38;;;6.60;100.00
36242;BME280;22283;42.748;12.732;2023-02-22T22:15:32;98113.13;;;6.46;100.00
36242;BME280;22283;42.748;12.732;2023-02-22T22:20:36;98114.84;;;6.15;100.00
36242;BME280;22283;42.748;12.732;2023-02-22T22:25:38;98114.25;;;6.10;100.00
36242;BME280;22283;42.748;12.732;2023-02-22T22:30:38;98122.63;;;6.16;100.00
36242;BME280;22283;42.748;12.732;2023-02-22T22:35:39;98128.91;;;6.14;100.00
36242;BME280;22283;42.748;12.732;2023-02-22T22:40:41;98134.81;;;6.02;100.00
36242;BME280;22283;42.748;12.732;2023-02-22T22:45:41;98141.94;;;6.00;100.00
36242;BME280;22283;42.748;12.732;2023-02-22T22:50:42;98147.50;;;5.94;100.00
36242;BME280;22283;42.748;12.732;2023-02-22T22:55:46;98148.63;;;6.05;100.00
36242;BME280;22283;42.748;12.732;2023-02-22T23:00:47;98141.13;;;6.15;100.00
36242;BME280;22283;42.748;12.732;2023-02-22T23:05:47;98141.38;;;6.10;100.00
36242;BME280;22283;42.748;12.732;2023-02-22T23:10:48;98145.66;;;5.96;100.00
36242;BME280;22283;42.748;12.732;2023-02-22T23:15:48;98147.41;;;5.79;100.00
36242;BME280;22283;42.748;12.732;2023-02-22T23:20:50;98134.59;;;5.73;100.00
36242;BME280;22283;42.748;12.732;2023-02-22T23:26:08;98130.03;;;5.77;100.00
36242;BME280;22283;42.748;12.732;2023-02-22T23:31:17;98126.03;;;5.85;100.00
36242;BME280;22283;42.748;12.732;2023-02-22T23:36:18;98121.25;;;5.94;100.00
36242;BME280;22283;42.748;12.732;2023-02-22T23:41:19;98111.19;;;6.02;100.00
36242;BME280;22283;42.748;12.732;2023-02-22T23:46:19;98120.94;;;6.15;100.00
36242;BME280;22283;42.748;12.732;2023-02-22T23:51:22;98123.16;;;6.23;100.00
36242;BME280;22283;42.748;12.732;2023-02-22T23:56:26;98116.53;;;6.32;100.00
